sensor_id;sensor_type;location;lat;lon;timestamp;P1;durP1;ratioP1;P2;durP2;ratioP2
71154;SDS011;59375;53.216;5.728;2022-10-16T00:00:42;7.03;;;2.30;;
71154;SDS011;59375;53.216;5.728;2022-10-16T00:03:08;6.85;;;2.25;;
71154;SDS011;59375;53.216;5.728;2022-10-16T00:05:38;6.38;;;1.90;;
71154;SDS011;59375;53.216;5.728;2022-10-16T00:08:08;6.72;;;2.20;;
71154;SDS011;59375;53.216;5.728;2022-10-16T00:10:35;6.18;;;1.98;;
71154;SDS011;59375;53.216;5.728;2022-10-16T00:13:01;9.00;;;2.75;;
71154;SDS011;59375;53.216;5.728;2022-10-16T00:15:26;8.10;;;2.20;;
71154;SDS011;59375;53.216;5.728;2022-10-16T00:17:52;8.07;;;2.67;;
71154;SDS011;59375;53.216;5.728;2022-10-16T00:20:17;6.35;;;2.35;;
71154;SDS011;59375;53.216;5.728;2022-10-16T00:22:43;9.65;;;2.40;;
71154;SDS011;59375;53.216;5.728;2022-10-16T00:25:08;7.53;;;2.42;;
71154;SDS011;59375;53.216;5.728;2022-10-16T00:27:34;8.23;;;2.13;;
71154;SDS011;59375;53.216;5.728;2022-10-16T00:30:00;7.63;;;2.33;;
71154;SDS011;59375;53.216;5.728;2022-10-16T00:32:25;10.00;;;2.45;;
71154;SDS011;59375;53.216;5.728;2022-10-16T00:34:51;7.45;;;2.22;;
71154;SDS011;59375;53.216;5.728;2022-10-16T00:37:19;6.50;;;2.05;;
71154;SDS011;59375;53.216;5.728;2022-10-16T00:39:44;6.78;;;2.08;;
71154;SDS011;59375;53.216;5.728;2022-10-16T00:42:14;7.97;;;2.20;;
71154;SDS011;59375;53.216;5.728;2022-10-16T00:44:52;8.18;;;1.98;;
71154;SDS011;59375;53.216;5.728;2022-10-16T00:47:29;7.38;;;1.90;;
71154;SDS011;59375;53.216;5.728;2022-10-16T00:50:04;7.80;;;2.20;;
71154;SDS011;59375;53.216;5.728;2022-10-16T00:52:34;6.82;;;2.03;;
71154;SDS011;59375;53.216;5.728;2022-10-16T00:55:00;5.85;;;1.88;;
71154;SDS011;59375;53.216;5.728;2022-10-16T00:57:27;5.50;;;1.90;;
71154;SDS011;59375;53.216;5.728;2022-10-16T00:59:53;8.63;;;2.60;;
71154;SDS011;59375;53.216;5.728;2022-10-16T01:02:19;8.45;;;2.20;;
71154;SDS011;59375;53.216;5.728;2022-10-16T01:04:46;6.85;;;1.95;;
71154;SDS011;59375;53.216;5.728;2022-10-16T01:07:16;7.40;;;2.22;;
71154;SDS011;59375;53.216;5.728;2022-10-16T01:10:17;8.23;;;1.88;;
71154;SDS011;59375;53.216;5.728;2022-10-16T01:13:20;5.03;;;2.22;;
71154;SDS011;59375;53.216;5.728;2022-10-16T01:15:56;5.70;;;2.20;;
71154;SDS011;59375;53.216;5.728;2022-10-16T01:18:43;7.80;;;1.80;;
71154;SDS011;59375;53.216;5.728;2022-10-16T01:21:22;5.13;;;2.17;;
71154;SDS011;59375;53.216;5.728;2022-10-16T01:23:59;5.55;;;1.80;;
71154;SDS011;59375;53.216;5.728;2022-10-16T01:31:58;8.50;;;2.00;;
71154;SDS011;59375;53.216;5.728;2022-10-16T01:34:33;9.25;;;2.05;;
71154;SDS011;59375;53.216;5.728;2022-10-16T01:37:05;6.25;;;1.90;;
71154;SDS011;59375;53.216;5.728;2022-10-16T01:39:37;6.20;;;1.83;;
71154;SDS011;59375;53.216;5.728;2022-10-16T01:42:06;4.68;;;1.98;;
71154;SDS011;59375;53.216;5.728;2022-10-16T01:44:36;6.75;;;1.98;;
71154;SDS011;59375;53.216;5.728;2022-10-16T01:47:03;8.18;;;2.10;;
71154;SDS011;59375;53.216;5.728;2022-10-16T01:49:31;4.53;;;2.05;;
71154;SDS011;59375;53.216;5.728;2022-10-16T01:52:00;5.60;;;1.92;;
71154;SDS011;59375;53.216;5.728;2022-10-16T01:54:30;6.57;;;1.90;;
71154;SDS011;59375;53.216;5.728;2022-10-16T01:56:59;5.10;;;1.90;;
71154;SDS011;59375;53.216;5.728;2022-10-16T01:59:26;7.57;;;2.13;;
71154;SDS011;59375;53.216;5.728;2022-10-16T02:01:56;8.13;;;2.15;;
71154;SDS011;59375;53.216;5.728;2022-10-16T02:04:33;6.82;;;2.10;;
71154;SDS011;59375;53.216;5.728;2022-10-16T02:07:02;6.72;;;2.25;;
71154;SDS011;59375;53.216;5.728;2022-10-16T02:09:29;6.85;;;2.53;;
71154;SDS011;59375;53.216;5.728;2022-10-16T02:11:56;6.53;;;2.08;;
71154;SDS011;59375;53.216;5.728;2022-10-16T02:14:24;9.77;;;2.30;;
71154;SDS011;59375;53.216;5.728;2022-10-16T02:16:51;4.60;;;2.22;;
71154;SDS011;59375;53.216;5.728;2022-10-16T02:19:17;5.90;;;2.05;;
71154;SDS011;59375;53.216;5.728;2022-10-16T02:27:00;6.35;;;1.80;;
71154;SDS011;59375;53.216;5.728;2022-10-16T02:29:33;4.80;;;2.05;;
71154;SDS011;59375;53.216;5.728;2022-10-16T02:32:04;6.28;;;2.20;;
71154;SDS011;59375;53.216;5.728;2022-10-16T02:34:32;7.90;;;2.35;;
71154;SDS011;59375;53.216;5.728;2022-10-16T02:36:59;6.10;;;2.10;;
71154;SDS011;59375;53.216;5.728;2022-10-16T02:39:27;6.53;;;2.47;;
71154;SDS011;59375;53.216;5.728;2022-10-16T02:41:54;5.70;;;2.85;;
71154;SDS011;59375;53.216;5.728;2022-10-16T02:44:19;6.45;;;2.60;;
71154;SDS011;59375;53.216;5.728;2022-10-16T02:46:45;6.78;;;2.80;;
71154;SDS011;59375;53.216;5.728;2022-10-16T02:49:10;7.20;;;2.92;;
71154;SDS011;59375;53.216;5.728;2022-10-16T02:51:36;7.65;;;2.83;;
71154;SDS011;59375;53.216;5.728;2022-10-16T02:54:02;5.80;;;3.10;;
71154;SDS011;59375;53.216;5.728;2022-10-16T02:56:28;5.25;;;2.58;;
71154;SDS011;59375;53.216;5.728;2022-10-16T02:58:55;6.13;;;2.78;;
71154;SDS011;59375;53.216;5.728;2022-10-16T03:01:20;8.82;;;3.00;;
71154;SDS011;59375;53.216;5.728;2022-10-16T03:03:46;7.80;;;2.53;;
71154;SDS011;59375;53.216;5.728;2022-10-16T03:06:11;6.45;;;2.92;;
71154;SDS011;59375;53.216;5.728;2022-10-16T03:08:37;6.45;;;2.75;;
71154;SDS011;59375;53.216;5.728;2022-10-16T03:11:03;5.65;;;2.83;;
71154;SDS011;59375;53.216;5.728;2022-10-16T03:13:29;8.48;;;3.15;;
71154;SDS011;59375;53.216;5.728;2022-10-16T03:15:54;5.20;;;2.70;;
71154;SDS011;59375;53.216;5.728;2022-10-16T03:18:20;9.13;;;2.67;;
71154;SDS011;59375;53.216;5.728;2022-10-16T03:20:45;4.80;;;2.72;;
71154;SDS011;59375;53.216;5.728;2022-10-16T03:23:11;5.20;;;2.75;;
71154;SDS011;59375;53.216;5.728;2022-10-16T03:25:37;7.55;;;3.30;;
71154;SDS011;59375;53.216;5.728;2022-10-16T03:28:02;6.20;;;2.50;;
71154;SDS011;59375;53.216;5.728;2022-10-16T03:30:28;6.78;;;2.88;;
71154;SDS011;59375;53.216;5.728;2022-10-16T03:32:54;6.65;;;2.53;;
71154;SDS011;59375;53.216;5.728;2022-10-16T03:35:20;10.57;;;3.55;;
71154;SDS011;59375;53.216;5.728;2022-10-16T03:37:46;9.57;;;2.80;;
71154;SDS011;59375;53.216;5.728;2022-10-16T03:40:11;4.35;;;2.45;;
71154;SDS011;59375;53.216;5.728;2022-10-16T03:42:38;5.55;;;2.60;;
71154;SDS011;59375;53.216;5.728;2022-10-16T03:45:04;5.57;;;2.60;;
71154;SDS011;59375;53.216;5.728;2022-10-16T03:47:30;6.85;;;2.92;;
71154;SDS011;59375;53.216;5.728;2022-10-16T03:49:57;6.93;;;2.55;;
71154;SDS011;59375;53.216;5.728;2022-10-16T03:52:23;5.38;;;2.70;;
71154;SDS011;59375;53.216;5.728;2022-10-16T03:54:49;5.00;;;2.60;;
71154;SDS011;59375;53.216;5.728;2022-10-16T03:57:14;5.75;;;2.60;;
71154;SDS011;59375;53.216;5.728;2022-10-16T03:59:40;5.07;;;2.25;;
71154;SDS011;59375;53.216;5.728;2022-10-16T04:02:05;5.90;;;2.53;;
71154;SDS011;59375;53.216;5.728;2022-10-16T04:04:31;7.72;;;2.22;;
71154;SDS011;59375;53.216;5.728;2022-10-16T04:06:56;5.82;;;2.20;;
71154;SDS011;59375;53.216;5.728;2022-10-16T04:09:22;4.72;;;2.08;;
71154;SDS011;59375;53.216;5.728;2022-10-16T04:11:47;6.82;;;2.10;;
71154;SDS011;59375;53.216;5.728;2022-10-16T04:14:13;6.47;;;2.33;;
71154;SDS011;59375;53.216;5.728;2022-10-16T04:16:39;6.35;;;2.30;;
71154;SDS011;59375;53.216;5.728;2022-10-16T04:19:04;8.32;;;2.50;;
71154;SDS011;59375;53.216;5.728;2022-10-16T04:21:30;7.00;;;2.58;;
71154;SDS011;59375;53.216;5.728;2022-10-16T04:23:55;6.80;;;2.20;;
71154;SDS011;59375;53.216;5.728;2022-10-16T04:26:21;7.38;;;2.40;;
71154;SDS011;59375;53.216;5.728;2022-10-16T04:28:46;7.43;;;2.72;;
71154;SDS011;59375;53.216;5.728;2022-10-16T04:31:12;8.57;;;2.40;;
71154;SDS011;59375;53.216;5.728;2022-10-16T04:33:38;4.13;;;2.20;;
71154;SDS011;59375;53.216;5.728;2022-10-16T04:36:03;7.30;;;2.50;;
71154;SDS011;59375;53.216;5.728;2022-10-16T04:38:29;5.97;;;2.25;;
71154;SDS011;59375;53.216;5.728;2022-10-16T04:40:55;7.80;;;2.20;;
71154;SDS011;59375;53.216;5.728;2022-10-16T04:43:21;5.78;;;2.42;;
71154;SDS011;59375;53.216;5.728;2022-10-16T04:45:47;8.65;;;2.55;;
71154;SDS011;59375;53.216;5.728;2022-10-16T04:48:13;6.38;;;2.20;;
71154;SDS011;59375;53.216;5.728;2022-10-16T04:50:38;5.97;;;2.63;;
71154;SDS011;59375;53.216;5.728;2022-10-16T04:53:04;13.27;;;3.15;;
71154;SDS011;59375;53.216;5.728;2022-10-16T04:55:31;5.78;;;2.00;;
71154;SDS011;59375;53.216;5.728;2022-10-16T04:57:56;5.55;;;2.33;;
71154;SDS011;59375;53.216;5.728;2022-10-16T05:00:22;6.40;;;2.15;;
71154;SDS011;59375;53.216;5.728;2022-10-16T05:02:49;4.63;;;1.75;;
71154;SDS011;59375;53.216;5.728;2022-10-16T05:05:15;5.20;;;2.08;;
71154;SDS011;59375;53.216;5.728;2022-10-16T05:07:40;6.05;;;2.05;;
71154;SDS011;59375;53.216;5.728;2022-10-16T05:10:06;5.10;;;2.00;;
71154;SDS011;59375;53.216;5.728;2022-10-16T05:12:32;5.50;;;1.90;;
71154;SDS011;59375;53.216;5.728;2022-10-16T05:14:58;4.60;;;1.90;;
71154;SDS011;59375;53.216;5.728;2022-10-16T05:17:26;7.53;;;2.10;;
71154;SDS011;59375;53.216;5.728;2022-10-16T05:19:52;6.30;;;2.15;;
71154;SDS011;59375;53.216;5.728;2022-10-16T05:22:18;6.88;;;2.42;;
71154;SDS011;59375;53.216;5.728;2022-10-16T05:24:43;8.05;;;2.10;;
71154;SDS011;59375;53.216;5.728;2022-10-16T05:27:09;7.13;;;2.85;;
71154;SDS011;59375;53.216;5.728;2022-10-16T05:29:36;7.40;;;2.53;;
71154;SDS011;59375;53.216;5.728;2022-10-16T05:32:01;6.75;;;2.55;;
71154;SDS011;59375;53.216;5.728;2022-10-16T05:34:27;9.13;;;2.80;;
71154;SDS011;59375;53.216;5.728;2022-10-16T05:36:53;6.95;;;2.60;;
71154;SDS011;59375;53.216;5.728;2022-10-16T05:39:18;7.88;;;3.10;;
71154;SDS011;59375;53.216;5.728;2022-10-16T05:41:44;4.95;;;2.85;;
71154;SDS011;59375;53.216;5.728;2022-10-16T05:44:10;6.85;;;3.08;;
71154;SDS011;59375;53.216;5.728;2022-10-16T05:46:36;8.63;;;3.20;;
71154;SDS011;59375;53.216;5.728;2022-10-16T05:49:01;10.88;;;3.67;;
71154;SDS011;59375;53.216;5.728;2022-10-16T05:51:27;6.85;;;3.35;;
71154;SDS011;59375;53.216;5.728;2022-10-16T05:53:52;7.90;;;3.17;;
71154;SDS011;59375;53.216;5.728;2022-10-16T05:56:18;9.70;;;3.42;;
71154;SDS011;59375;53.216;5.728;2022-10-16T05:58:44;6.28;;;3.40;;
71154;SDS011;59375;53.216;5.728;2022-10-16T06:01:13;6.55;;;3.17;;
71154;SDS011;59375;53.216;5.728;2022-10-16T06:03:41;8.50;;;3.22;;
71154;SDS011;59375;53.216;5.728;2022-10-16T06:06:07;6.70;;;3.15;;
71154;SDS011;59375;53.216;5.728;2022-10-16T06:08:37;9.02;;;3.28;;
71154;SDS011;59375;53.216;5.728;2022-10-16T06:11:03;5.93;;;2.85;;
71154;SDS011;59375;53.216;5.728;2022-10-16T06:13:30;7.65;;;3.05;;
71154;SDS011;59375;53.216;5.728;2022-10-16T06:15:57;7.70;;;3.20;;
71154;SDS011;59375;53.216;5.728;2022-10-16T06:18:24;7.93;;;3.17;;
71154;SDS011;59375;53.216;5.728;2022-10-16T06:20:50;9.50;;;3.08;;
71154;SDS011;59375;53.216;5.728;2022-10-16T06:23:15;7.82;;;3.00;;
71154;SDS011;59375;53.216;5.728;2022-10-16T06:25:41;6.30;;;3.30;;
71154;SDS011;59375;53.216;5.728;2022-10-16T06:28:07;8.48;;;3.20;;
71154;SDS011;59375;53.216;5.728;2022-10-16T06:30:32;7.18;;;3.20;;
71154;SDS011;59375;53.216;5.728;2022-10-16T06:32:57;8.77;;;2.90;;
71154;SDS011;59375;53.216;5.728;2022-10-16T06:35:23;12.40;;;3.10;;
71154;SDS011;59375;53.216;5.728;2022-10-16T06:37:49;8.80;;;3.40;;
71154;SDS011;59375;53.216;5.728;2022-10-16T06:40:14;11.55;;;3.10;;
71154;SDS011;59375;53.216;5.728;2022-10-16T06:42:40;9.07;;;2.75;;
71154;SDS011;59375;53.216;5.728;2022-10-16T06:45:06;8.63;;;2.55;;
71154;SDS011;59375;53.216;5.728;2022-10-16T06:47:32;9.10;;;3.20;;
71154;SDS011;59375;53.216;5.728;2022-10-16T06:49:58;7.20;;;2.40;;
71154;SDS011;59375;53.216;5.728;2022-10-16T06:52:23;6.15;;;2.67;;
71154;SDS011;59375;53.216;5.728;2022-10-16T06:54:49;9.02;;;2.30;;
71154;SDS011;59375;53.216;5.728;2022-10-16T06:57:15;7.90;;;2.65;;
71154;SDS011;59375;53.216;5.728;2022-10-16T06:59:41;7.25;;;2.67;;
71154;SDS011;59375;53.216;5.728;2022-10-16T07:02:07;7.00;;;2.38;;
71154;SDS011;59375;53.216;5.728;2022-10-16T07:04:33;6.03;;;2.60;;
71154;SDS011;59375;53.216;5.728;2022-10-16T07:07:00;8.45;;;3.10;;
71154;SDS011;59375;53.216;5.728;2022-10-16T07:09:25;6.35;;;2.50;;
71154;SDS011;59375;53.216;5.728;2022-10-16T07:11:51;5.40;;;2.50;;
71154;SDS011;59375;53.216;5.728;2022-10-16T07:14:18;9.07;;;2.95;;
71154;SDS011;59375;53.216;5.728;2022-10-16T07:16:44;7.20;;;2.70;;
71154;SDS011;59375;53.216;5.728;2022-10-16T07:19:10;7.53;;;3.03;;
71154;SDS011;59375;53.216;5.728;2022-10-16T07:21:40;7.95;;;2.72;;
71154;SDS011;59375;53.216;5.728;2022-10-16T07:24:07;7.95;;;2.58;;
71154;SDS011;59375;53.216;5.728;2022-10-16T07:26:38;7.47;;;2.50;;
71154;SDS011;59375;53.216;5.728;2022-10-16T07:29:04;9.68;;;2.90;;
71154;SDS011;59375;53.216;5.728;2022-10-16T07:31:32;7.70;;;2.70;;
71154;SDS011;59375;53.216;5.728;2022-10-16T07:33:58;7.55;;;2.65;;
71154;SDS011;59375;53.216;5.728;2022-10-16T07:36:25;5.65;;;2.47;;
71154;SDS011;59375;53.216;5.728;2022-10-16T07:38:50;9.25;;;2.92;;
71154;SDS011;59375;53.216;5.728;2022-10-16T07:41:17;8.63;;;3.30;;
71154;SDS011;59375;53.216;5.728;2022-10-16T07:43:47;7.03;;;2.58;;
71154;SDS011;59375;53.216;5.728;2022-10-16T07:46:15;8.93;;;3.08;;
71154;SDS011;59375;53.216;5.728;2022-10-16T07:48:41;6.32;;;3.05;;
71154;SDS011;59375;53.216;5.728;2022-10-16T07:51:10;9.40;;;3.42;;
71154;SDS011;59375;53.216;5.728;2022-10-16T07:53:36;8.90;;;3.58;;
71154;SDS011;59375;53.216;5.728;2022-10-16T07:56:04;6.35;;;2.90;;
71154;SDS011;59375;53.216;5.728;2022-10-16T07:58:31;8.30;;;3.40;;
71154;SDS011;59375;53.216;5.728;2022-10-16T08:00:57;20.00;;;13.73;;
71154;SDS011;59375;53.216;5.728;2022-10-16T08:03:23;9.05;;;3.50;;
71154;SDS011;59375;53.216;5.728;2022-10-16T08:05:49;9.73;;;2.78;;
71154;SDS011;59375;53.216;5.728;2022-10-16T08:08:16;6.97;;;2.80;;
71154;SDS011;59375;53.216;5.728;2022-10-16T08:10:42;9.05;;;2.85;;
71154;SDS011;59375;53.216;5.728;2022-10-16T08:13:08;6.95;;;2.80;;
71154;SDS011;59375;53.216;5.728;2022-10-16T08:15:34;6.55;;;2.42;;
71154;SDS011;59375;53.216;5.728;2022-10-16T08:18:01;7.95;;;2.75;;
71154;SDS011;59375;53.216;5.728;2022-10-16T08:20:28;7.70;;;2.75;;
71154;SDS011;59375;53.216;5.728;2022-10-16T08:22:55;9.88;;;2.80;;
71154;SDS011;59375;53.216;5.728;2022-10-16T08:25:21;8.82;;;2.90;;
71154;SDS011;59375;53.216;5.728;2022-10-16T08:27:48;7.95;;;2.72;;
71154;SDS011;59375;53.216;5.728;2022-10-16T08:30:14;6.55;;;2.60;;
71154;SDS011;59375;53.216;5.728;2022-10-16T08:32:41;9.52;;;2.75;;
71154;SDS011;59375;53.216;5.728;2022-10-16T08:35:07;8.00;;;2.60;;
71154;SDS011;59375;53.216;5.728;2022-10-16T08:37:34;8.50;;;2.92;;
71154;SDS011;59375;53.216;5.728;2022-10-16T08:39:59;9.50;;;2.58;;
71154;SDS011;59375;53.216;5.728;2022-10-16T08:48:08;7.68;;;2.47;;
71154;SDS011;59375;53.216;5.728;2022-10-16T08:50:39;8.30;;;2.38;;
71154;SDS011;59375;53.216;5.728;2022-10-16T08:53:05;8.27;;;2.80;;
71154;SDS011;59375;53.216;5.728;2022-10-16T08:58:11;10.83;;;2.93;;
71154;SDS011;59375;53.216;5.728;2022-10-16T09:00:39;10.75;;;2.80;;
71154;SDS011;59375;53.216;5.728;2022-10-16T09:03:22;14.02;;;3.10;;
71154;SDS011;59375;53.216;5.728;2022-10-16T09:16:36;9.70;;;2.63;;
71154;SDS011;59375;53.216;5.728;2022-10-16T09:21:54;16.17;;;7.70;;
71154;SDS011;59375;53.216;5.728;2022-10-16T09:24:21;10.93;;;3.00;;
71154;SDS011;59375;53.216;5.728;2022-10-16T09:26:50;12.30;;;2.67;;
71154;SDS011;59375;53.216;5.728;2022-10-16T09:29:16;15.07;;;2.88;;
71154;SDS011;59375;53.216;5.728;2022-10-16T09:31:48;11.43;;;2.77;;
71154;SDS011;59375;53.216;5.728;2022-10-16T09:34:29;9.90;;;2.58;;
71154;SDS011;59375;53.216;5.728;2022-10-16T09:36:57;10.20;;;2.67;;
71154;SDS011;59375;53.216;5.728;2022-10-16T09:39:24;11.98;;;3.10;;
71154;SDS011;59375;53.216;5.728;2022-10-16T09:41:50;14.98;;;2.63;;
71154;SDS011;59375;53.216;5.728;2022-10-16T09:44:23;13.15;;;3.30;;
71154;SDS011;59375;53.216;5.728;2022-10-16T09:47:36;14.02;;;2.97;;
71154;SDS011;59375;53.216;5.728;2022-10-16T09:52:31;15.13;;;2.80;;
71154;SDS011;59375;53.216;5.728;2022-10-16T09:54:58;10.23;;;2.88;;
71154;SDS011;59375;53.216;5.728;2022-10-16T09:57:25;16.52;;;3.00;;
71154;SDS011;59375;53.216;5.728;2022-10-16T09:59:52;15.45;;;3.80;;
71154;SDS011;59375;53.216;5.728;2022-10-16T10:02:34;12.25;;;2.40;;
71154;SDS011;59375;53.216;5.728;2022-10-16T10:05:03;17.27;;;2.70;;
71154;SDS011;59375;53.216;5.728;2022-10-16T10:07:31;10.13;;;2.78;;
71154;SDS011;59375;53.216;5.728;2022-10-16T10:09:59;14.00;;;2.85;;
71154;SDS011;59375;53.216;5.728;2022-10-16T10:12:29;11.38;;;3.10;;
71154;SDS011;59375;53.216;5.728;2022-10-16T10:15:04;11.38;;;3.08;;
71154;SDS011;59375;53.216;5.728;2022-10-16T10:17:44;16.27;;;2.83;;
71154;SDS011;59375;53.216;5.728;2022-10-16T10:20:27;11.50;;;2.70;;
71154;SDS011;59375;53.216;5.728;2022-10-16T10:22:55;14.00;;;3.17;;
71154;SDS011;59375;53.216;5.728;2022-10-16T10:25:24;13.10;;;2.53;;
71154;SDS011;59375;53.216;5.728;2022-10-16T10:27:55;12.35;;;3.08;;
71154;SDS011;59375;53.216;5.728;2022-10-16T10:30:42;12.75;;;2.60;;
71154;SDS011;59375;53.216;5.728;2022-10-16T10:36:09;12.30;;;3.20;;
71154;SDS011;59375;53.216;5.728;2022-10-16T10:38:43;15.82;;;2.80;;
71154;SDS011;59375;53.216;5.728;2022-10-16T10:44:01;11.45;;;3.17;;
71154;SDS011;59375;53.216;5.728;2022-10-16T10:49:40;13.10;;;3.30;;
71154;SDS011;59375;53.216;5.728;2022-10-16T10:52:34;18.67;;;2.85;;
71154;SDS011;59375;53.216;5.728;2022-10-16T11:00:56;9.77;;;2.72;;
71154;SDS011;59375;53.216;5.728;2022-10-16T11:09:25;10.50;;;2.70;;
71154;SDS011;59375;53.216;5.728;2022-10-16T11:12:06;10.13;;;2.45;;
71154;SDS011;59375;53.216;5.728;2022-10-16T11:17:11;10.60;;;2.50;;
71154;SDS011;59375;53.216;5.728;2022-10-16T11:22:22;9.65;;;2.58;;
71154;SDS011;59375;53.216;5.728;2022-10-16T11:30:14;11.52;;;4.13;;
71154;SDS011;59375;53.216;5.728;2022-10-16T11:32:50;9.23;;;2.78;;
71154;SDS011;59375;53.216;5.728;2022-10-16T11:35:41;13.45;;;2.90;;
71154;SDS011;59375;53.216;5.728;2022-10-16T11:41:10;9.50;;;2.70;;
71154;SDS011;59375;53.216;5.728;2022-10-16T11:43:38;12.52;;;2.70;;
71154;SDS011;59375;53.216;5.728;2022-10-16T11:46:09;10.05;;;2.88;;
71154;SDS011;59375;53.216;5.728;2022-10-16T11:48:48;9.68;;;2.70;;
71154;SDS011;59375;53.216;5.728;2022-10-16T11:51:36;11.90;;;2.85;;
71154;SDS011;59375;53.216;5.728;2022-10-16T11:54:18;10.63;;;2.75;;
71154;SDS011;59375;53.216;5.728;2022-10-16T11:56:50;10.13;;;3.10;;
71154;SDS011;59375;53.216;5.728;2022-10-16T12:06:48;8.90;;;3.85;;
71154;SDS011;59375;53.216;5.728;2022-10-16T12:11:59;9.82;;;3.97;;
71154;SDS011;59375;53.216;5.728;2022-10-16T12:14:38;7.00;;;2.60;;
71154;SDS011;59375;53.216;5.728;2022-10-16T12:17:23;8.73;;;2.83;;
71154;SDS011;59375;53.216;5.728;2022-10-16T12:22:48;10.25;;;3.45;;
71154;SDS011;59375;53.216;5.728;2022-10-16T12:25:53;7.45;;;2.58;;
71154;SDS011;59375;53.216;5.728;2022-10-16T12:30:40;10.82;;;3.92;;
71154;SDS011;59375;53.216;5.728;2022-10-16T12:35:53;8.75;;;2.80;;
71154;SDS011;59375;53.216;5.728;2022-10-16T12:38:21;11.60;;;2.78;;
71154;SDS011;59375;53.216;5.728;2022-10-16T12:41:05;11.85;;;5.32;;
71154;SDS011;59375;53.216;5.728;2022-10-16T12:46:04;9.27;;;2.83;;
71154;SDS011;59375;53.216;5.728;2022-10-16T12:48:33;9.48;;;3.20;;
71154;SDS011;59375;53.216;5.728;2022-10-16T12:51:19;8.85;;;2.55;;
71154;SDS011;59375;53.216;5.728;2022-10-16T12:56:32;12.60;;;2.80;;
71154;SDS011;59375;53.216;5.728;2022-10-16T13:02:05;9.98;;;2.75;;
71154;SDS011;59375;53.216;5.728;2022-10-16T13:05:03;11.23;;;2.75;;
71154;SDS011;59375;53.216;5.728;2022-10-16T13:10:26;10.85;;;2.40;;
71154;SDS011;59375;53.216;5.728;2022-10-16T13:15:51;9.88;;;2.65;;
71154;SDS011;59375;53.216;5.728;2022-10-16T13:26:55;10.52;;;2.83;;
71154;SDS011;59375;53.216;5.728;2022-10-16T13:29:31;9.70;;;2.97;;
71154;SDS011;59375;53.216;5.728;2022-10-16T13:31:58;13.52;;;2.67;;
71154;SDS011;59375;53.216;5.728;2022-10-16T13:34:25;11.27;;;2.65;;
71154;SDS011;59375;53.216;5.728;2022-10-16T13:36:52;29.40;;;17.25;;
71154;SDS011;59375;53.216;5.728;2022-10-16T13:39:25;12.23;;;3.10;;
71154;SDS011;59375;53.216;5.728;2022-10-16T13:42:03;12.07;;;3.03;;
71154;SDS011;59375;53.216;5.728;2022-10-16T13:44:48;9.88;;;2.70;;
71154;SDS011;59375;53.216;5.728;2022-10-16T13:47:19;10.88;;;3.05;;
71154;SDS011;59375;53.216;5.728;2022-10-16T13:49:46;12.50;;;5.53;;
71154;SDS011;59375;53.216;5.728;2022-10-16T13:52:23;14.43;;;4.93;;
71154;SDS011;59375;53.216;5.728;2022-10-16T13:54:49;12.10;;;3.03;;
71154;SDS011;59375;53.216;5.728;2022-10-16T13:57:14;10.07;;;2.72;;
71154;SDS011;59375;53.216;5.728;2022-10-16T13:59:41;9.48;;;2.47;;
71154;SDS011;59375;53.216;5.728;2022-10-16T14:02:26;9.27;;;2.35;;
71154;SDS011;59375;53.216;5.728;2022-10-16T14:04:56;11.25;;;2.35;;
71154;SDS011;59375;53.216;5.728;2022-10-16T14:07:23;9.50;;;2.55;;
71154;SDS011;59375;53.216;5.728;2022-10-16T14:09:52;8.40;;;2.58;;
71154;SDS011;59375;53.216;5.728;2022-10-16T14:12:19;14.30;;;2.85;;
71154;SDS011;59375;53.216;5.728;2022-10-16T14:14:47;11.25;;;2.63;;
71154;SDS011;59375;53.216;5.728;2022-10-16T14:19:40;10.60;;;2.58;;
71154;SDS011;59375;53.216;5.728;2022-10-16T14:28:03;11.23;;;2.38;;
71154;SDS011;59375;53.216;5.728;2022-10-16T14:30:48;13.20;;;2.97;;
71154;SDS011;59375;53.216;5.728;2022-10-16T14:33:22;10.20;;;2.75;;
71154;SDS011;59375;53.216;5.728;2022-10-16T14:36:00;9.23;;;2.10;;
71154;SDS011;59375;53.216;5.728;2022-10-16T14:38:29;10.38;;;2.53;;
71154;SDS011;59375;53.216;5.728;2022-10-16T14:40:56;10.75;;;2.90;;
71154;SDS011;59375;53.216;5.728;2022-10-16T14:43:39;8.80;;;2.50;;
71154;SDS011;59375;53.216;5.728;2022-10-16T14:46:16;12.48;;;2.80;;
71154;SDS011;59375;53.216;5.728;2022-10-16T14:48:44;13.02;;;2.60;;
71154;SDS011;59375;53.216;5.728;2022-10-16T14:51:19;11.88;;;2.75;;
71154;SDS011;59375;53.216;5.728;2022-10-16T14:53:45;13.60;;;3.03;;
71154;SDS011;59375;53.216;5.728;2022-10-16T14:56:16;12.73;;;2.78;;
71154;SDS011;59375;53.216;5.728;2022-10-16T14:58:47;12.23;;;2.75;;
71154;SDS011;59375;53.216;5.728;2022-10-16T15:01:15;11.50;;;3.00;;
71154;SDS011;59375;53.216;5.728;2022-10-16T15:03:40;9.75;;;2.90;;
71154;SDS011;59375;53.216;5.728;2022-10-16T15:06:09;11.43;;;2.65;;
71154;SDS011;59375;53.216;5.728;2022-10-16T15:08:37;14.98;;;3.10;;
71154;SDS011;59375;53.216;5.728;2022-10-16T15:11:02;15.88;;;3.13;;
71154;SDS011;59375;53.216;5.728;2022-10-16T15:13:28;11.93;;;2.75;;
71154;SDS011;59375;53.216;5.728;2022-10-16T15:15:53;8.85;;;2.50;;
71154;SDS011;59375;53.216;5.728;2022-10-16T15:18:19;12.15;;;3.00;;
71154;SDS011;59375;53.216;5.728;2022-10-16T15:20:47;11.50;;;2.92;;
71154;SDS011;59375;53.216;5.728;2022-10-16T15:23:14;15.68;;;2.78;;
71154;SDS011;59375;53.216;5.728;2022-10-16T15:25:46;14.02;;;2.78;;
71154;SDS011;59375;53.216;5.728;2022-10-16T15:28:16;9.10;;;2.33;;
71154;SDS011;59375;53.216;5.728;2022-10-16T15:30:43;13.30;;;2.70;;
71154;SDS011;59375;53.216;5.728;2022-10-16T15:33:13;9.77;;;2.58;;
71154;SDS011;59375;53.216;5.728;2022-10-16T15:35:40;11.07;;;2.88;;
71154;SDS011;59375;53.216;5.728;2022-10-16T15:38:06;12.52;;;2.95;;
71154;SDS011;59375;53.216;5.728;2022-10-16T15:40:35;13.25;;;3.25;;
71154;SDS011;59375;53.216;5.728;2022-10-16T15:43:01;12.57;;;2.85;;
71154;SDS011;59375;53.216;5.728;2022-10-16T15:45:26;11.05;;;2.78;;
71154;SDS011;59375;53.216;5.728;2022-10-16T15:47:52;15.27;;;3.20;;
71154;SDS011;59375;53.216;5.728;2022-10-16T15:50:17;12.73;;;2.80;;
71154;SDS011;59375;53.216;5.728;2022-10-16T15:52:43;15.10;;;3.53;;
71154;SDS011;59375;53.216;5.728;2022-10-16T15:55:09;10.90;;;2.70;;
71154;SDS011;59375;53.216;5.728;2022-10-16T15:57:37;13.18;;;2.78;;
71154;SDS011;59375;53.216;5.728;2022-10-16T16:00:07;11.55;;;3.13;;
71154;SDS011;59375;53.216;5.728;2022-10-16T16:02:35;9.38;;;2.67;;
71154;SDS011;59375;53.216;5.728;2022-10-16T16:05:01;12.25;;;2.70;;
71154;SDS011;59375;53.216;5.728;2022-10-16T16:07:27;13.77;;;3.13;;
71154;SDS011;59375;53.216;5.728;2022-10-16T16:09:53;14.63;;;3.05;;
71154;SDS011;59375;53.216;5.728;2022-10-16T16:12:19;15.73;;;2.92;;
71154;SDS011;59375;53.216;5.728;2022-10-16T16:14:44;13.88;;;3.20;;
71154;SDS011;59375;53.216;5.728;2022-10-16T16:17:13;11.00;;;2.47;;
71154;SDS011;59375;53.216;5.728;2022-10-16T16:19:38;13.73;;;2.83;;
71154;SDS011;59375;53.216;5.728;2022-10-16T16:22:04;11.63;;;3.20;;
71154;SDS011;59375;53.216;5.728;2022-10-16T16:24:29;14.07;;;2.80;;
71154;SDS011;59375;53.216;5.728;2022-10-16T16:26:55;14.20;;;3.15;;
71154;SDS011;59375;53.216;5.728;2022-10-16T16:29:21;15.80;;;3.10;;
71154;SDS011;59375;53.216;5.728;2022-10-16T16:31:46;13.48;;;2.72;;
71154;SDS011;59375;53.216;5.728;2022-10-16T16:34:12;14.95;;;3.00;;
71154;SDS011;59375;53.216;5.728;2022-10-16T16:36:38;13.90;;;2.97;;
71154;SDS011;59375;53.216;5.728;2022-10-16T16:39:05;16.17;;;3.30;;
71154;SDS011;59375;53.216;5.728;2022-10-16T16:41:31;15.40;;;2.97;;
71154;SDS011;59375;53.216;5.728;2022-10-16T16:44:01;14.07;;;4.60;;
71154;SDS011;59375;53.216;5.728;2022-10-16T16:46:28;26.90;;;11.20;;
71154;SDS011;59375;53.216;5.728;2022-10-16T16:48:57;25.88;;;14.15;;
71154;SDS011;59375;53.216;5.728;2022-10-16T16:51:23;22.92;;;9.88;;